Time;durP1;ratioP1;P1;durP2;ratioP2;P2;SDS_P1;SDS_P2;PMS_P1;PMS_P2;Temp;Humidity;BMP_temperature;BMP_pressure;BME280_temperature;BME280_humidity;BME280_pressure;Samples;Min_cycle;Max_cycle;Signal;HPM_P1;HPM_P2
2021/05/07 00:02:13;;;;;;;1.47;1.10;;;23.00;29.30;;;;;;5052528;28;20221;-42
2021/05/07 00:04:39;;;;;;;1.33;1.23;;;23.00;29.30;;;;;;5052537;28;20215;-46
2021/05/07 00:07:05;;;;;;;1.40;1.30;;;23.00;29.30;;;;;;5050764;28;20202;-44
2021/05/07 00:09:31;;;;;;;1.03;1.00;;;23.00;29.30;;;;;;5069737;28;20201;-44
2021/05/07 00:11:58;;;;;;;1.20;1.10;;;23.00;29.40;;;;;;5066109;28;20680;-40
2021/05/07 00:14:24;;;;;;;1.20;1.10;;;23.00;29.50;;;;;;5072380;28;20204;-44
2021/05/07 00:16:53;;;;;;;0.90;0.90;;;23.00;29.30;;;;;;5065663;28;20204;-45
2021/05/07 00:19:19;;;;;;;1.20;1.10;;;23.00;29.30;;;;;;5071822;28;20210;-42
2021/05/07 00:21:45;;;;;;;1.03;1.03;;;23.00;29.40;;;;;;5071895;28;20228;-38
2021/05/07 00:24:11;;;;;;;0.87;0.80;;;23.00;29.40;;;;;;5071511;28;20222;-45
2021/05/07 00:26:37;;;;;;;1.90;1.00;;;23.00;29.50;;;;;;5065410;28;20194;-40
2021/05/07 00:29:03;;;;;;;1.83;1.08;;;23.00;29.30;;;;;;5055441;28;20565;-43
2021/05/07 00:31:29;;;;;;;1.15;0.95;;;23.00;29.50;;;;;;5064416;28;20248;-46
2021/05/07 00:33:55;;;;;;;1.23;1.10;;;23.00;29.50;;;;;;5065209;28;20698;-49
2021/05/07 00:36:21;;;;;;;4.50;1.07;;;23.00;29.60;;;;;;5058257;28;20307;-42
2021/05/07 00:38:47;;;;;;;1.50;1.23;;;23.00;29.60;;;;;;5072207;28;20293;-39
2021/05/07 00:41:13;;;;;;;1.37;0.90;;;23.00;29.70;;;;;;5055552;28;20219;-39
2021/05/07 00:43:39;;;;;;;1.05;1.00;;;23.00;29.60;;;;;;5056060;28;20235;-41
2021/05/07 00:46:05;;;;;;;1.00;1.00;;;23.00;29.70;;;;;;5053281;28;20688;-40
2021/05/07 00:48:31;;;;;;;1.50;1.10;;;23.00;29.80;;;;;;5059600;28;20247;-43
2021/05/07 00:50:57;;;;;;;1.47;1.20;;;23.00;29.80;;;;;;5067136;28;20231;-47
2021/05/07 00:53:23;;;;;;;1.10;1.00;;;23.00;29.90;;;;;;5059667;28;20239;-45
2021/05/07 00:55:49;;;;;;;1.10;1.00;;;23.00;29.80;;;;;;5067187;28;20208;-48
2021/05/07 00:58:15;;;;;;;0.80;0.80;;;23.00;29.80;;;;;;5071919;28;20205;-43
2021/05/07 01:00:41;;;;;;;0.80;0.80;;;23.00;29.70;;;;;;5065047;28;20540;-46
2021/05/07 01:03:07;;;;;;;1.87;1.10;;;23.00;29.80;;;;;;5063974;28;20236;-42
2021/05/07 01:05:33;;;;;;;2.17;1.20;;;23.00;29.60;;;;;;5065371;28;20201;-45
2021/05/07 01:07:59;;;;;;;1.27;1.00;;;23.00;29.60;;;;;;5069500;28;20286;-40
2021/05/07 01:10:25;;;;;;;1.10;1.00;;;23.00;29.80;;;;;;5068266;28;20234;-44
2021/05/07 01:12:51;;;;;;;0.90;0.90;;;23.00;29.80;;;;;;5068701;28;20233;-43
2021/05/07 01:15:17;;;;;;;1.80;1.07;;;23.00;29.60;;;;;;5056337;28;20213;-46
2021/05/07 01:17:43;;;;;;;1.23;1.10;;;23.00;29.80;;;;;;5052689;28;20206;-45
2021/05/07 01:20:09;;;;;;;0.90;0.90;;;23.00;29.80;;;;;;5062875;28;20568;-44
2021/05/07 01:22:35;;;;;;;1.87;1.10;;;23.00;29.60;;;;;;5068484;28;20228;-44
2021/05/07 01:25:01;;;;;;;1.33;1.07;;;23.00;29.70;;;;;;5065096;28;20224;-42
2021/05/07 01:27:27;;;;;;;1.20;0.90;;;23.00;29.60;;;;;;5072524;28;20561;-45
2021/05/07 01:29:53;;;;;;;0.88;0.88;;;23.00;29.70;;;;;;5063123;28;20260;-44
2021/05/07 01:32:19;;;;;;;1.10;0.90;;;23.00;29.70;;;;;;5062197;28;20639;-46
2021/05/07 01:34:45;;;;;;;1.53;1.30;;;23.00;29.70;;;;;;5062803;28;20205;-44
2021/05/07 01:37:11;;;;;;;1.13;1.13;;;23.00;29.80;;;;;;5059706;28;20204;-48
2021/05/07 01:39:37;;;;;;;1.88;0.93;;;23.00;29.80;;;;;;5052415;28;20202;-47
2021/05/07 01:42:03;;;;;;;1.43;1.00;;;23.00;29.80;;;;;;5054749;28;20228;-42
2021/05/07 01:44:29;;;;;;;1.20;1.00;;;23.00;29.70;;;;;;5067330;28;20223;-44
2021/05/07 01:46:55;;;;;;;1.20;1.10;;;23.00;29.90;;;;;;5063994;28;20201;-42
2021/05/07 01:49:21;;;;;;;1.37;0.90;;;23.00;29.90;;;;;;5069958;28;20667;-43
2021/05/07 01:51:47;;;;;;;0.90;0.90;;;23.00;30.00;;;;;;5070017;28;20362;-41
2021/05/07 01:54:13;;;;;;;1.10;1.00;;;23.00;29.90;;;;;;5060737;28;20793;-39
2021/05/07 01:56:39;;;;;;;1.88;0.90;;;23.00;29.80;;;;;;5070123;28;20252;-43
2021/05/07 01:59:05;;;;;;;1.13;1.00;;;23.00;30.00;;;;;;5058833;28;20201;-45
2021/05/07 02:01:31;;;;;;;1.15;0.90;;;23.00;30.00;;;;;;5070228;28;20248;-43
2021/05/07 02:03:57;;;;;;;8.83;1.50;;;23.00;30.00;;;;;;5067021;28;20240;-42
2021/05/07 02:06:23;;;;;;;2.03;0.98;;;23.00;30.60;;;;;;5052627;28;20213;-48
2021/05/07 02:08:49;;;;;;;2.00;1.27;;;23.00;30.90;;;;;;5060665;28;20198;-41
2021/05/07 02:11:15;;;;;;;0.90;0.90;;;23.00;30.50;;;;;;5070738;28;20274;-47
2021/05/07 02:13:41;;;;;;;0.83;0.80;;;23.00;30.40;;;;;;5062450;28;21676;-47
2021/05/07 02:16:07;;;;;;;6.67;0.90;;;23.00;30.20;;;;;;5067880;28;20202;-48
2021/05/07 02:18:33;;;;;;;2.45;1.00;;;23.00;30.10;;;;;;5060871;28;20193;-48
2021/05/07 02:20:59;;;;;;;0.82;0.80;;;23.00;30.20;;;;;;5071348;28;20296;-40
2021/05/07 02:23:25;;;;;;;1.00;0.90;;;23.00;30.00;;;;;;5059918;28;20727;-42
2021/05/07 02:25:51;;;;;;;1.37;0.90;;;23.00;30.00;;;;;;5064547;28;20205;-42
2021/05/07 02:28:17;;;;;;;1.10;1.00;;;23.00;30.10;;;;;;5061352;28;20693;-40
2021/05/07 02:30:43;;;;;;;1.27;1.00;;;23.00;30.00;;;;;;5065336;28;20289;-43
2021/05/07 02:33:09;;;;;;;1.00;0.70;;;23.00;30.60;;;;;;5051126;28;20205;-42
2021/05/07 02:35:36;;;;;;;1.37;0.97;;;23.00;30.00;;;;;;5059663;28;20197;-44
2021/05/07 02:38:02;;;;;;;1.60;1.07;;;23.00;30.00;;;;;;5051005;28;20205;-53
2021/05/07 02:40:28;;;;;;;1.10;0.87;;;23.00;30.00;;;;;;5061300;28;20348;-43
2021/05/07 02:42:53;;;;;;;1.07;1.00;;;23.00;30.00;;;;;;5064737;28;20225;-42
2021/05/07 02:45:19;;;;;;;1.30;1.20;;;23.00;30.00;;;;;;5068765;28;20232;-55
2021/05/07 02:47:45;;;;;;;0.90;0.90;;;23.00;30.00;;;;;;5068985;28;20208;-44
2021/05/07 02:50:11;;;;;;;1.83;0.93;;;23.00;30.00;;;;;;5065073;28;20213;-46
2021/05/07 02:52:37;;;;;;;0.93;0.82;;;23.00;30.00;;;;;;5063395;28;20272;-44
2021/05/07 02:55:03;;;;;;;1.00;1.00;;;23.00;30.00;;;;;;5059250;28;20200;-45
2021/05/07 02:57:29;;;;;;;1.35;0.90;;;23.00;29.90;;;;;;5066644;28;20262;-44
2021/05/07 02:59:55;;;;;;;0.95;0.85;;;23.00;30.00;;;;;;5068748;28;20201;-42
2021/05/07 03:02:21;;;;;;;1.47;1.00;;;23.00;30.10;;;;;;5066812;28;20236;-40
2021/05/07 03:04:47;;;;;;;0.80;0.80;;;23.00;30.10;;;;;;5056046;28;20198;-40
2021/05/07 03:07:13;;;;;;;1.00;0.90;;;23.00;30.00;;;;;;5066109;28;20201;-43
2021/05/07 03:09:39;;;;;;;0.90;0.90;;;23.00;30.20;;;;;;5069382;28;20201;-41
2021/05/07 03:12:05;;;;;;;1.10;1.00;;;23.00;30.00;;;;;;5058952;28;20212;-42
2021/05/07 03:14:31;;;;;;;1.50;0.90;;;23.00;30.20;;;;;;5066916;28;20302;-40
2021/05/07 03:16:57;;;;;;;0.80;0.80;;;23.00;30.10;;;;;;5056116;28;20678;-41
2021/05/07 03:19:23;;;;;;;2.53;1.00;;;23.00;30.00;;;;;;5060568;28;20200;-39
2021/05/07 03:21:49;;;;;;;0.80;0.80;;;23.00;30.20;;;;;;5068294;28;20220;-39
2021/05/07 03:24:15;;;;;;;0.80;0.80;;;23.00;30.20;;;;;;5063025;28;20202;-39
2021/05/07 03:26:41;;;;;;;0.80;0.80;;;23.00;30.20;;;;;;5059902;28;20212;-40
2021/05/07 03:29:07;;;;;;;1.90;0.88;;;23.00;30.10;;;;;;5068927;28;20205;-40
2021/05/07 03:31:34;;;;;;;1.77;0.88;;;23.00;30.20;;;;;;5060266;28;20226;-40
2021/05/07 03:34:00;;;;;;;1.48;1.00;;;23.00;30.10;;;;;;5052086;28;20289;-40
2021/05/07 03:36:26;;;;;;;0.90;0.90;;;23.00;30.30;;;;;;5055858;28;20197;-40
2021/05/07 03:38:52;;;;;;;0.73;0.73;;;23.00;30.20;;;;;;5060046;28;20216;-40
2021/05/07 03:41:18;;;;;;;1.10;1.10;;;23.00;30.30;;;;;;5053840;28;20224;-40
2021/05/07 03:43:44;;;;;;;1.00;1.00;;;23.00;30.10;;;;;;5069150;28;20867;-40
2021/05/07 03:46:10;;;;;;;1.13;0.85;;;23.00;30.20;;;;;;5055577;28;20274;-42
2021/05/07 03:48:36;;;;;;;0.82;0.82;;;23.00;30.10;;;;;;5074315;28;20262;-39
2021/05/07 03:51:02;;;;;;;1.35;1.23;;;23.00;30.20;;;;;;5054392;28;20214;-40
2021/05/07 03:53:28;;;;;;;0.85;0.80;;;23.00;30.00;;;;;;5073413;28;20231;-40
2021/05/07 03:55:54;;;;;;;1.50;1.17;;;23.00;30.20;;;;;;5058913;28;20255;-40
2021/05/07 03:58:20;;;;;;;0.90;0.90;;;23.00;30.20;;;;;;5066614;28;20209;-39
2021/05/07 04:00:46;;;;;;;1.58;0.93;;;23.00;30.20;;;;;;5056760;28;20217;-44
2021/05/07 04:03:12;;;;;;;0.80;0.80;;;23.00;30.00;;;;;;5070448;28;20239;-41
2021/05/07 04:05:38;;;;;;;1.00;0.90;;;23.00;30.00;;;;;;5062170;28;20561;-40
2021/05/07 04:08:10;;;;;;;1.00;0.97;;;23.00;30.30;;;;;;5060461;28;20209;-44
2021/05/07 04:10:38;;;;;;;0.98;0.90;;;23.00;30.10;;;;;;5068499;28;20262;-40
2021/05/07 04:15:49;;;;;;;0.93;0.90;;;23.00;30.00;;;;;;5059977;28;20200;-40
2021/05/07 04:18:15;;;;;;;1.02;0.80;;;23.00;30.00;;;;;;5066867;28;20209;-39
2021/05/07 04:20:41;;;;;;;0.75;0.75;;;23.00;30.00;;;;;;5056947;28;20584;-41
2021/05/07 04:23:07;;;;;;;1.00;0.80;;;23.00;30.00;;;;;;5065834;28;20229;-40
2021/05/07 04:25:33;;;;;;;0.90;0.90;;;23.00;30.00;;;;;;5060853;28;20206;-40
2021/05/07 04:27:59;;;;;;;1.58;0.80;;;23.00;30.00;;;;;;5064096;28;20200;-39
2021/05/07 04:30:24;;;;;;;0.70;0.70;;;23.00;30.00;;;;;;5057902;28;20213;-41
2021/05/07 04:32:50;;;;;;;1.10;1.00;;;23.00;30.00;;;;;;5062106;28;20205;-42
2021/05/07 04:35:16;;;;;;;0.90;0.90;;;23.00;30.10;;;;;;5059651;28;20202;-39
2021/05/07 04:37:42;;;;;;;0.90;0.90;;;23.00;30.20;;;;;;5061695;28;20201;-39
2021/05/07 04:40:08;;;;;;;0.90;0.90;;;23.00;30.20;;;;;;5060912;28;20220;-40
2021/05/07 04:42:34;;;;;;;1.70;0.90;;;23.00;30.00;;;;;;5053950;28;20275;-39
2021/05/07 04:45:00;;;;;;;1.17;0.80;;;23.00;30.10;;;;;;5052810;28;20335;-39
2021/05/07 04:47:26;;;;;;;0.98;0.95;;;23.00;30.70;;;;;;5056720;28;20209;-39
2021/05/07 04:49:52;;;;;;;1.67;1.00;;;23.00;30.10;;;;;;5063157;28;20208;-39
2021/05/07 04:52:18;;;;;;;0.90;0.90;;;23.00;30.00;;;;;;5072053;28;20297;-39
2021/05/07 04:54:44;;;;;;;0.80;0.80;;;23.00;30.20;;;;;;5068432;28;20355;-39
2021/05/07 04:57:10;;;;;;;1.58;0.85;;;23.00;30.10;;;;;;5060046;28;20201;-41
2021/05/07 04:59:36;;;;;;;1.47;0.90;;;23.00;30.20;;;;;;5071892;28;20204;-40
2021/05/07 05:02:02;;;;;;;0.80;0.80;;;23.00;30.10;;;;;;5069069;28;20572;-39
2021/05/07 05:04:28;;;;;;;0.70;0.70;;;23.00;30.20;;;;;;5066560;28;20208;-39
2021/05/07 05:06:54;;;;;;;1.90;0.90;;;23.00;30.10;;;;;;5056133;28;20562;-39
2021/05/07 05:09:20;;;;;;;1.20;0.80;;;23.00;30.00;;;;;;5071180;28;20197;-39
2021/05/07 05:11:46;;;;;;;0.98;0.90;;;23.00;30.20;;;;;;5064869;28;20251;-43
2021/05/07 05:14:12;;;;;;;0.80;0.80;;;23.00;30.10;;;;;;5070097;28;20205;-39
2021/05/07 05:16:38;;;;;;;0.80;0.80;;;23.00;30.00;;;;;;5056720;28;20208;-42
2021/05/07 05:19:04;;;;;;;1.13;0.80;;;23.00;30.20;;;;;;5072124;28;20671;-39
2021/05/07 05:21:30;;;;;;;0.90;0.83;;;23.00;30.20;;;;;;5061775;28;20222;-40
2021/05/07 05:23:56;;;;;;;0.98;0.90;;;23.00;30.10;;;;;;5060581;28;20237;-49
2021/05/07 05:26:22;;;;;;;0.77;0.77;;;23.00;30.10;;;;;;5064146;28;20204;-40
2021/05/07 05:28:48;;;;;;;0.80;0.80;;;23.00;30.20;;;;;;5072784;28;20204;-40
2021/05/07 05:31:14;;;;;;;0.80;0.80;;;23.00;30.20;;;;;;5059052;28;20291;-40
2021/05/07 05:33:40;;;;;;;0.95;0.82;;;23.00;30.10;;;;;;5066924;28;20211;-40
2021/05/07 05:36:06;;;;;;;0.80;0.80;;;23.00;30.10;;;;;;5059656;28;20209;-42
2021/05/07 05:38:32;;;;;;;0.80;0.80;;;23.00;30.20;;;;;;5052233;28;20198;-44
2021/05/07 05:40:58;;;;;;;0.70;0.70;;;23.00;30.20;;;;;;5062227;28;20231;-48
2021/05/07 05:43:24;;;;;;;0.90;0.80;;;23.00;30.20;;;;;;5061904;28;20287;-44
2021/05/07 05:45:50;;;;;;;0.80;0.80;;;23.00;30.20;;;;;;5058765;28;20646;-45
2021/05/07 05:48:18;;;;;;;0.90;0.90;;;23.00;30.20;;;;;;5066884;28;20198;-44
2021/05/07 05:50:44;;;;;;;0.95;0.90;;;23.00;30.10;;;;;;5057421;28;20223;-44
2021/05/07 05:53:10;;;;;;;0.80;0.80;;;23.00;30.20;;;;;;5069288;28;20247;-50
2021/05/07 05:55:36;;;;;;;0.80;0.80;;;23.00;30.30;;;;;;5063301;28;20205;-40
2021/05/07 05:58:02;;;;;;;0.80;0.80;;;23.00;30.40;;;;;;5068915;28;20204;-41
2021/05/07 06:00:28;;;;;;;1.55;0.80;;;23.00;30.20;;;;;;5070346;28;20236;-46
2021/05/07 06:02:54;;;;;;;0.95;0.95;;;23.00;30.20;;;;;;5066879;28;20263;-47
2021/05/07 06:05:20;;;;;;;1.17;0.80;;;23.00;30.30;;;;;;5064751;28;20194;-51
2021/05/07 06:07:46;;;;;;;1.20;0.90;;;23.00;30.30;;;;;;5060677;28;20227;-41
2021/05/07 06:10:12;;;;;;;1.27;1.10;;;23.00;30.80;;;;;;5069153;28;20279;-45
2021/05/07 06:12:38;;;;;;;1.97;1.20;;;23.00;31.10;;;;;;5060838;28;20613;-46
2021/05/07 06:15:04;;;;;;;1.58;1.00;;;23.00;31.30;;;;;;5064723;28;20226;-47
2021/05/07 06:17:30;;;;;;;4.43;1.10;;;23.00;31.50;;;;;;5064339;28;20197;-43
2021/05/07 06:19:57;;;;;;;4.27;1.50;;;23.00;31.80;;;;;;5058472;28;20201;-43
2021/05/07 06:22:23;;;;;;;2.67;1.00;;;23.00;31.80;;;;;;5056236;28;20224;-46
2021/05/07 06:24:49;;;;;;;1.60;0.80;;;23.00;32.20;;;;;;5069671;28;20685;-42
2021/05/07 06:27:15;;;;;;;1.17;0.80;;;23.00;32.20;;;;;;5071376;28;20208;-46
2021/05/07 06:29:41;;;;;;;2.20;1.00;;;23.00;32.30;;;;;;5065770;28;20213;-45
2021/05/07 06:32:07;;;;;;;2.40;1.00;;;23.00;32.30;;;;;;5051474;28;20202;-42
2021/05/07 06:34:33;;;;;;;0.97;0.97;;;23.00;32.30;;;;;;5060963;28;20277;-39
2021/05/07 06:36:59;;;;;;;1.43;1.07;;;23.00;32.30;;;;;;5065666;28;20250;-41
2021/05/07 06:39:29;;;;;;;1.83;1.15;;;23.00;32.30;;;;;;5066211;28;20565;-44
2021/05/07 06:41:56;;;;;;;2.47;1.00;;;23.00;32.60;;;;;;5066419;28;20588;-45
2021/05/07 06:44:21;;;;;;;3.15;0.93;;;23.00;32.80;;;;;;5069279;28;20205;-50
2021/05/07 06:46:47;;;;;;;2.50;1.08;;;23.00;33.00;;;;;;5070399;28;20259;-41
2021/05/07 06:49:13;;;;;;;2.47;1.10;;;23.00;33.10;;;;;;5067044;28;20617;-42
2021/05/07 06:51:40;;;;;;;2.73;1.10;;;23.00;33.10;;;;;;5069325;28;20221;-41
2021/05/07 06:54:08;;;;;;;1.63;0.88;;;23.00;33.20;;;;;;5060928;28;20617;-41
2021/05/07 06:56:34;;;;;;;2.42;1.23;;;23.00;33.00;;;;;;5059569;28;20198;-47
2021/05/07 06:59:00;;;;;;;2.43;1.10;;;23.00;33.30;;;;;;5080565;22;20285;-42
2021/05/07 07:01:26;;;;;;;2.40;1.20;;;23.00;33.00;;;;;;5065774;28;20229;-42
2021/05/07 07:03:52;;;;;;;3.10;1.00;;;22.90;33.00;;;;;;5061500;28;20277;-40
2021/05/07 07:06:18;;;;;;;1.05;1.00;;;23.00;33.00;;;;;;5062782;28;20684;-39
2021/05/07 07:08:44;;;;;;;3.22;1.15;;;23.00;32.80;;;;;;5066208;28;20237;-38
2021/05/07 07:11:10;;;;;;;1.88;1.08;;;23.00;32.80;;;;;;5065013;28;20230;-43
2021/05/07 07:13:36;;;;;;;1.00;0.90;;;23.00;33.40;;;;;;5065675;28;20208;-39
2021/05/07 07:16:02;;;;;;;0.77;0.77;;;23.00;32.50;;;;;;5055757;28;20198;-41
2021/05/07 07:18:28;;;;;;;1.60;1.07;;;23.00;32.50;;;;;;5053114;28;20206;-39
2021/05/07 07:20:54;;;;;;;2.50;1.00;;;23.00;32.30;;;;;;5055493;28;20225;-39
2021/05/07 07:23:20;;;;;;;2.65;1.50;;;23.00;32.90;;;;;;5058693;28;20228;-39
2021/05/07 07:25:46;;;;;;;1.87;1.53;;;23.00;32.30;;;;;;5052427;28;20197;-46
2021/05/07 07:28:17;;;;;;;1.13;0.97;;;23.00;32.00;;;;;;5069609;28;20278;-39
2021/05/07 07:30:43;;;;;;;1.87;0.90;;;22.80;29.80;;;;;;5066418;28;20616;-41
2021/05/07 07:33:09;;;;;;;1.73;0.90;;;21.70;29.30;;;;;;5065843;28;20212;-39
2021/05/07 07:35:35;;;;;;;0.80;0.80;;;21.00;29.90;;;;;;5069462;28;20277;-44
2021/05/07 07:38:01;;;;;;;0.70;0.70;;;20.90;30.10;;;;;;5069052;28;20641;-38
2021/05/07 07:40:27;;;;;;;5.13;1.13;;;20.90;30.40;;;;;;5064632;28;20231;-40
2021/05/07 07:42:53;;;;;;;1.17;1.03;;;21.00;30.10;;;;;;5057829;28;20693;-40
2021/05/07 07:45:19;;;;;;;0.93;0.83;;;21.50;30.00;;;;;;5064558;28;20285;-38
2021/05/07 07:47:45;;;;;;;1.37;0.83;;;21.80;29.70;;;;;;5059055;28;20557;-41
2021/05/07 07:50:11;;;;;;;1.30;1.20;;;22.00;29.60;;;;;;5058545;28;20229;-40
2021/05/07 07:52:38;;;;;;;2.83;0.87;;;22.20;30.00;;;;;;5059947;28;20536;-43
2021/05/07 07:55:04;;;;;;;1.00;0.90;;;22.30;29.60;;;;;;5068109;28;20211;-42
2021/05/07 07:57:30;;;;;;;1.43;0.90;;;22.30;29.60;;;;;;5054480;28;20277;-47
2021/05/07 07:59:56;;;;;;;0.83;0.70;;;22.30;29.60;;;;;;5049632;28;20232;-42
2021/05/07 08:02:22;;;;;;;0.77;0.77;;;22.40;29.60;;;;;;5058254;28;20726;-43
2021/05/07 08:04:48;;;;;;;1.00;1.00;;;22.40;29.70;;;;;;5049598;28;20205;-45
2021/05/07 08:07:14;;;;;;;1.73;0.90;;;22.40;29.70;;;;;;5060001;28;20203;-47
2021/05/07 08:09:40;;;;;;;1.43;0.90;;;22.40;29.60;;;;;;5058544;28;20228;-38
2021/05/07 08:12:06;;;;;;;1.20;0.80;;;22.50;29.80;;;;;;5063401;28;20653;-40
2021/05/07 08:14:32;;;;;;;1.00;0.80;;;22.60;29.50;;;;;;5067474;28;20200;-38
2021/05/07 08:16:58;;;;;;;0.90;0.90;;;22.60;29.80;;;;;;5061758;28;20219;-37
2021/05/07 08:19:24;;;;;;;0.87;0.87;;;22.60;29.50;;;;;;5063864;28;20220;-37
2021/05/07 08:21:50;;;;;;;1.30;0.90;;;22.70;29.40;;;;;;5064311;28;20227;-37
2021/05/07 08:24:16;;;;;;;0.80;0.80;;;22.70;29.50;;;;;;5054558;28;20232;-37
2021/05/07 08:26:42;;;;;;;2.43;0.80;;;22.70;29.40;;;;;;5063972;28;20653;-38
2021/05/07 08:29:08;;;;;;;0.70;0.70;;;22.60;29.30;;;;;;5061736;28;20194;-37
2021/05/07 08:31:34;;;;;;;1.03;0.77;;;22.60;29.30;;;;;;5059287;28;20655;-38
2021/05/07 08:34:00;;;;;;;0.80;0.80;;;22.60;29.20;;;;;;5061561;28;20244;-38
2021/05/07 08:36:26;;;;;;;0.80;0.80;;;22.60;29.30;;;;;;5065994;28;20555;-38
2021/05/07 08:38:52;;;;;;;1.00;0.90;;;22.60;29.30;;;;;;5070249;28;20211;-40
2021/05/07 08:41:18;;;;;;;1.20;0.80;;;22.60;29.40;;;;;;5067937;28;20254;-45
2021/05/07 08:43:44;;;;;;;1.40;0.83;;;22.60;29.40;;;;;;5066110;28;20229;-39
2021/05/07 08:46:10;;;;;;;1.17;0.70;;;22.60;29.40;;;;;;5072255;28;20250;-39
2021/05/07 08:48:38;;;;;;;0.80;0.80;;;22.60;29.30;;;;;;5067334;28;20368;-39
2021/05/07 08:51:04;;;;;;;0.70;0.70;;;22.60;29.30;;;;;;5068110;28;20225;-39
2021/05/07 08:53:31;;;;;;;1.20;0.80;;;22.50;29.20;;;;;;5072283;28;20286;-43
2021/05/07 08:55:57;;;;;;;1.53;0.70;;;22.50;29.20;;;;;;5055848;28;20220;-42
2021/05/07 08:58:23;;;;;;;0.77;0.77;;;22.50;29.00;;;;;;5053033;28;20213;-39
2021/05/07 09:00:49;;;;;;;0.70;0.70;;;22.50;29.10;;;;;;5067275;28;20235;-43
2021/05/07 09:03:15;;;;;;;0.87;0.70;;;22.50;29.00;;;;;;5071687;28;20370;-44
2021/05/07 09:05:41;;;;;;;0.70;0.70;;;22.50;28.90;;;;;;5069899;28;20606;-44
2021/05/07 09:08:07;;;;;;;0.70;0.70;;;22.50;28.80;;;;;;5054176;28;20205;-40
2021/05/07 09:10:33;;;;;;;1.23;0.67;;;22.50;28.60;;;;;;5062081;28;20578;-39
2021/05/07 09:12:59;;;;;;;0.80;0.80;;;22.50;28.70;;;;;;5072267;28;20215;-40
2021/05/07 09:15:25;;;;;;;0.63;0.63;;;22.50;28.70;;;;;;5069308;28;20200;-40
2021/05/07 09:17:51;;;;;;;1.37;0.90;;;22.50;28.90;;;;;;5066981;28;20210;-39
2021/05/07 09:20:17;;;;;;;1.53;0.90;;;22.50;28.70;;;;;;5068941;28;20224;-43
2021/05/07 09:22:43;;;;;;;0.87;0.87;;;22.60;29.10;;;;;;5068893;28;20307;-39
2021/05/07 09:25:09;;;;;;;1.37;0.70;;;22.70;29.10;;;;;;5064396;28;20205;-39
2021/05/07 09:27:35;;;;;;;3.23;0.70;;;22.70;29.00;;;;;;5064284;28;20694;-39
2021/05/07 09:30:01;;;;;;;0.60;0.60;;;22.70;28.90;;;;;;5073323;28;20232;-39
2021/05/07 09:32:27;;;;;;;3.23;1.07;;;22.60;28.80;;;;;;5072089;28;20258;-39
2021/05/07 09:34:54;;;;;;;0.60;0.60;;;22.60;28.90;;;;;;5072656;28;20208;-39
2021/05/07 09:37:22;;;;;;;0.77;0.70;;;22.50;28.80;;;;;;5065018;28;20654;-43
2021/05/07 09:39:51;;;;;;;0.77;0.77;;;22.50;28.90;;;;;;5053048;28;20719;-39
2021/05/07 09:42:16;;;;;;;1.10;0.80;;;22.50;28.90;;;;;;5056713;28;20667;-40
2021/05/07 09:44:42;;;;;;;0.93;0.70;;;22.50;28.90;;;;;;5063204;28;20259;-41
2021/05/07 09:47:08;;;;;;;1.80;0.90;;;22.50;28.80;;;;;;5063221;28;20204;-38
2021/05/07 09:49:34;;;;;;;2.50;0.80;;;22.50;29.30;;;;;;5034725;28;20252;-40
2021/05/07 09:52:00;;;;;;;2.23;0.80;;;22.60;29.10;;;;;;5060086;28;20239;-38
2021/05/07 09:54:26;;;;;;;0.70;0.70;;;22.60;28.80;;;;;;5059844;28;20223;-38
2021/05/07 09:56:54;;;;;;;2.23;0.70;;;22.60;28.80;;;;;;5055035;28;20541;-38
2021/05/07 09:59:20;;;;;;;1.13;0.80;;;22.60;28.60;;;;;;5087398;28;20719;-39
2021/05/07 10:01:46;;;;;;;0.63;0.63;;;22.60;28.70;;;;;;5059803;28;20263;-39
2021/05/07 10:04:12;;;;;;;0.93;0.83;;;22.60;28.70;;;;;;5059555;28;20232;-39
2021/05/07 10:06:38;;;;;;;0.80;0.67;;;22.60;28.70;;;;;;5070603;28;20200;-40
2021/05/07 10:09:04;;;;;;;1.27;0.77;;;22.60;28.70;;;;;;5070147;28;20308;-42
2021/05/07 10:11:30;;;;;;;1.50;0.60;;;22.60;28.70;;;;;;5067028;28;20602;-38
2021/05/07 10:13:56;;;;;;;0.93;0.70;;;22.60;28.60;;;;;;5059232;28;20216;-40
2021/05/07 10:16:22;;;;;;;1.47;0.90;;;22.60;28.60;;;;;;5064128;28;20279;-41
2021/05/07 10:18:48;;;;;;;1.43;0.70;;;22.60;28.60;;;;;;5060071;28;20221;-40
2021/05/07 10:21:14;;;;;;;1.17;0.80;;;22.60;28.70;;;;;;5069281;28;20201;-42
2021/05/07 10:23:40;;;;;;;0.70;0.67;;;22.60;28.70;;;;;;5070365;28;20232;-53
2021/05/07 10:26:06;;;;;;;0.77;0.70;;;22.60;28.70;;;;;;5055970;28;20198;-42
2021/05/07 10:28:32;;;;;;;0.97;0.87;;;22.70;28.90;;;;;;5060461;28;20260;-44
2021/05/07 10:30:58;;;;;;;1.90;1.20;;;22.70;28.90;;;;;;5051112;28;20212;-45
2021/05/07 10:33:24;;;;;;;1.00;0.80;;;22.60;28.80;;;;;;5062490;28;20566;-38
2021/05/07 10:35:50;;;;;;;1.63;0.90;;;22.60;28.80;;;;;;5058531;28;20212;-40
2021/05/07 10:38:16;;;;;;;2.97;0.80;;;22.60;28.80;;;;;;5050744;28;20217;-40
2021/05/07 10:40:42;;;;;;;0.80;0.70;;;22.60;29.30;;;;;;5050601;28;20657;-42
2021/05/07 10:43:08;;;;;;;1.00;0.80;;;22.60;28.90;;;;;;5052479;28;20217;-39
2021/05/07 10:45:34;;;;;;;1.03;0.83;;;22.60;28.90;;;;;;5061997;28;20205;-38
2021/05/07 10:48:00;;;;;;;0.67;0.67;;;22.60;28.80;;;;;;5069086;28;20277;-43
2021/05/07 10:50:26;;;;;;;0.70;0.70;;;22.60;28.80;;;;;;5070199;28;20205;-43
2021/05/07 10:52:52;;;;;;;1.90;0.83;;;22.60;28.80;;;;;;5061071;28;20197;-39
2021/05/07 10:55:18;;;;;;;1.10;0.70;;;22.60;28.80;;;;;;5050915;28;20660;-40
2021/05/07 11:00:22;;;;;;;2.13;0.90;;;22.60;28.80;;;;;;5095096;27;20569;-42
2021/05/07 11:02:51;;;;;;;0.80;0.80;;;22.60;28.90;;;;;;5086525;28;20273;-40
2021/05/07 11:05:17;;;;;;;0.80;0.80;;;22.60;28.90;;;;;;5073722;28;21869;-40
2021/05/07 11:07:43;;;;;;;1.20;0.80;;;22.60;28.80;;;;;;5085489;28;20205;-40
2021/05/07 11:10:09;;;;;;;0.63;0.63;;;22.60;28.90;;;;;;5086290;28;20232;-40
2021/05/07 11:12:36;;;;;;;1.73;1.20;;;22.60;28.80;;;;;;5085236;28;20236;-43
2021/05/07 11:15:02;;;;;;;1.63;0.73;;;22.60;28.80;;;;;;5081690;28;20520;-41
2021/05/07 11:17:28;;;;;;;0.80;0.80;;;22.60;28.70;;;;;;5072169;28;20208;-38
2021/05/07 11:19:54;;;;;;;0.67;0.63;;;22.60;28.70;;;;;;5076320;28;20304;-41
2021/05/07 11:22:20;;;;;;;1.03;1.00;;;22.60;28.60;;;;;;5083996;28;20254;-40
2021/05/07 11:24:47;;;;;;;0.97;0.87;;;22.60;28.50;;;;;;5076526;28;20212;-44
2021/05/07 11:27:13;;;;;;;0.80;0.80;;;22.60;28.50;;;;;;5084429;28;20212;-40
2021/05/07 11:29:39;;;;;;;1.67;0.80;;;22.60;28.50;;;;;;5072151;28;20220;-40
2021/05/07 11:32:05;;;;;;;0.90;0.90;;;22.60;28.50;;;;;;5071738;28;20212;-39
2021/05/07 11:34:31;;;;;;;1.00;1.00;;;22.60;28.60;;;;;;5075657;28;20545;-39
2021/05/07 11:36:57;;;;;;;0.80;0.80;;;22.70;28.70;;;;;;5080992;28;20193;-40
2021/05/07 11:39:23;;;;;;;1.00;1.00;;;22.60;28.80;;;;;;5077928;28;20644;-39
2021/05/07 11:41:49;;;;;;;1.43;0.90;;;22.60;28.90;;;;;;5078634;28;20235;-39
2021/05/07 11:44:15;;;;;;;1.10;0.90;;;22.60;29.00;;;;;;5069120;28;20571;-41
2021/05/07 11:46:41;;;;;;;1.33;1.10;;;22.60;29.00;;;;;;5076552;28;20228;-47
2021/05/07 11:49:07;;;;;;;1.70;1.10;;;22.60;29.20;;;;;;5080900;28;20216;-40
2021/05/07 11:51:34;;;;;;;2.07;1.20;;;22.60;29.30;;;;;;5084956;28;20204;-39
2021/05/07 11:54:00;;;;;;;0.90;0.90;;;22.50;29.20;;;;;;5069785;28;20209;-40
2021/05/07 11:56:26;;;;;;;1.13;1.03;;;22.60;29.30;;;;;;5080507;28;20212;-41
2021/05/07 11:58:52;;;;;;;2.03;1.10;;;22.60;29.40;;;;;;5084039;28;20235;-38
2021/05/07 12:01:19;;;;;;;1.27;1.00;;;22.60;29.50;;;;;;5080454;28;20256;-45
2021/05/07 12:03:46;;;;;;;1.10;1.00;;;22.60;29.60;;;;;;5077276;28;20257;-42
2021/05/07 12:06:12;;;;;;;1.17;1.07;;;22.60;29.80;;;;;;5085665;28;20211;-39
2021/05/07 12:08:38;;;;;;;1.20;1.00;;;22.60;29.80;;;;;;5079805;28;20235;-38
2021/05/07 12:11:04;;;;;;;1.57;1.00;;;22.60;29.70;;;;;;5073854;28;20657;-39
2021/05/07 12:13:30;;;;;;;1.10;1.10;;;22.60;29.70;;;;;;5057184;28;20200;-41
2021/05/07 12:15:56;;;;;;;1.40;1.03;;;22.60;29.60;;;;;;5072375;28;20657;-40
2021/05/07 12:18:22;;;;;;;1.00;1.00;;;22.60;29.60;;;;;;5069507;28;20229;-39
2021/05/07 12:20:48;;;;;;;1.67;1.10;;;22.60;29.60;;;;;;5060211;28;20223;-39
2021/05/07 12:23:14;;;;;;;1.60;1.20;;;22.60;29.70;;;;;;5054141;28;20205;-39
2021/05/07 12:25:40;;;;;;;0.93;0.90;;;22.60;29.60;;;;;;5058651;28;20200;-38
2021/05/07 12:28:06;;;;;;;1.40;1.30;;;22.60;29.60;;;;;;5061665;28;20224;-39
2021/05/07 12:30:32;;;;;;;1.13;1.10;;;22.60;29.50;;;;;;5056633;28;20220;-39
2021/05/07 12:32:58;;;;;;;1.00;1.00;;;22.60;29.30;;;;;;5061432;28;20657;-41
2021/05/07 12:35:24;;;;;;;1.23;1.10;;;22.60;29.10;;;;;;5068446;28;20208;-39
2021/05/07 12:37:50;;;;;;;1.60;1.20;;;22.60;29.00;;;;;;5056028;28;20283;-40
2021/05/07 12:40:16;;;;;;;1.27;1.17;;;22.60;28.90;;;;;;5064955;28;20566;-42
2021/05/07 12:42:42;;;;;;;1.30;1.20;;;22.60;28.80;;;;;;5064790;28;20204;-40
2021/05/07 12:45:08;;;;;;;1.10;1.00;;;22.60;28.80;;;;;;5064094;28;20197;-38
2021/05/07 12:47:34;;;;;;;1.23;1.23;;;22.60;28.70;;;;;;5064973;28;20723;-41